createdAt,value
2023-03-22T00:00:18.163Z,86
2023-03-22T00:05:18.398Z,83
2023-03-22T00:10:16.219Z,81
2023-03-22T00:15:16.389Z,81
2023-03-22T00:20:16.236Z,80
2023-03-22T00:25:16.321Z,79
2023-03-22T00:30:16.513Z,78
2023-03-22T00:35:16.384Z,76
2023-03-22T00:40:18.275Z,76
2023-03-22T00:45:16.665Z,75
2023-03-22T00:50:16.325Z,74
2023-03-22T00:55:16.386Z,73
2023-03-22T01:00:17.153Z,74
2023-03-22T01:05:16.406Z,73
2023-03-22T01:10:16.460Z,72
2023-03-22T01:15:16.787Z,72
2023-03-22T01:20:16.494Z,71
2023-03-22T01:25:16.477Z,71
2023-03-22T01:30:16.571Z,84
2023-03-22T01:35:16.705Z,96
2023-03-22T01:40:16.544Z,89
2023-03-22T01:45:16.601Z,79
2023-03-22T01:50:16.448Z,75
2023-03-22T01:55:16.496Z,75
2023-03-22T02:00:16.725Z,75
2023-03-22T02:05:16.976Z,73
2023-03-22T02:10:16.796Z,74
2023-03-22T02:15:16.662Z,77
2023-03-22T02:20:16.600Z,76
2023-03-22T02:25:16.593Z,76
2023-03-22T02:30:16.574Z,76
2023-03-22T02:35:16.734Z,76
2023-03-22T02:40:16.669Z,76
2023-03-22T02:45:16.678Z,76
2023-03-22T02:50:16.631Z,76
2023-03-22T02:55:16.699Z,76
2023-03-22T03:00:16.779Z,76
2023-03-22T03:05:16.765Z,77
2023-03-22T03:10:16.644Z,76
2023-03-22T03:15:17.143Z,77
2023-03-22T03:20:16.996Z,77
2023-03-22T03:25:16.689Z,77
2023-03-22T03:30:16.815Z,77
2023-03-22T03:35:16.818Z,76
2023-03-22T03:40:16.761Z,76
2023-03-22T03:45:16.941Z,77
2023-03-22T03:50:16.995Z,77
2023-03-22T03:55:16.814Z,77
2023-03-22T04:00:17.964Z,76
2023-03-22T04:05:17.886Z,80
2023-03-22T04:10:18.271Z,100
2023-03-22T04:15:18.191Z,100
2023-03-22T04:20:18.620Z,100
2023-03-22T04:25:18.298Z,100
2023-03-22T04:30:18.379Z,100
2023-03-22T04:35:18.036Z,98
2023-03-22T04:40:17.993Z,95
2023-03-22T04:45:18.285Z,93
2023-03-22T04:50:18.000Z,89
2023-03-22T04:55:18.300Z,89
2023-03-22T05:00:18.011Z,92
2023-03-22T05:05:18.017Z,100
2023-03-22T05:10:18.161Z,100
2023-03-22T05:15:18.123Z,100
2023-03-22T05:20:18.045Z,100
2023-03-22T05:25:18.096Z,100
2023-03-22T05:30:18.748Z,100
2023-03-22T05:35:18.181Z,100
2023-03-22T05:40:18.120Z,100
2023-03-22T05:45:18.422Z,100
2023-03-22T05:50:18.046Z,100
2023-03-22T05:55:18.149Z,100
2023-03-22T06:00:18.124Z,100
2023-03-22T06:05:18.578Z,100
2023-03-22T06:10:18.164Z,100
2023-03-22T06:15:18.327Z,100
2023-03-22T06:20:18.203Z,100
2023-03-22T06:25:18.648Z,100
2023-03-22T06:30:16.330Z,100
2023-03-22T06:35:16.267Z,100
2023-03-22T06:40:16.615Z,100
2023-03-22T06:45:16.489Z,100
2023-03-22T06:50:16.357Z,100
2023-03-22T06:55:16.213Z,100
2023-03-22T07:00:16.860Z,100
2023-03-22T07:05:16.366Z,100
2023-03-22T07:10:16.306Z,100
2023-03-22T07:15:17.697Z,100
2023-03-22T07:20:16.380Z,100
2023-03-22T07:25:16.659Z,100
2023-03-22T07:30:16.686Z,100
2023-03-22T07:35:16.640Z,100
2023-03-22T07:40:17.928Z,100
2023-03-22T07:45:16.696Z,100
2023-03-22T07:50:16.840Z,100
2023-03-22T07:55:16.504Z,100
2023-03-22T08:00:16.597Z,100
2023-03-22T08:05:16.549Z,100
2023-03-22T08:10:16.532Z,100
2023-03-22T08:15:17.100Z,100
2023-03-22T08:20:16.529Z,100
2023-03-22T08:25:16.783Z,100
2023-03-22T08:30:16.722Z,100
2023-03-22T08:35:16.862Z,100
2023-03-22T08:40:16.628Z,100
2023-03-22T08:45:16.690Z,100
2023-03-22T08:50:16.666Z,100
2023-03-22T08:55:16.745Z,100
2023-03-22T09:00:17.028Z,100
2023-03-22T09:05:16.641Z,100
2023-03-22T09:10:16.615Z,100
2023-03-22T09:15:16.927Z,100
2023-03-22T09:20:16.769Z,100
2023-03-22T09:25:16.678Z,100
2023-03-22T09:30:16.865Z,100
2023-03-22T09:35:16.928Z,100
2023-03-22T09:40:16.918Z,100
2023-03-22T09:45:16.966Z,100
2023-03-22T09:50:16.805Z,100
2023-03-22T09:55:16.752Z,100
2023-03-22T10:00:16.954Z,100
2023-03-22T10:05:16.819Z,100
2023-03-22T10:10:17.061Z,100
2023-03-22T10:15:16.923Z,100
2023-03-22T10:20:16.880Z,100
2023-03-22T10:25:16.901Z,100
2023-03-22T10:30:17.146Z,100
2023-03-22T10:35:16.975Z,100
2023-03-22T10:40:16.855Z,100
2023-03-22T10:45:17.596Z,100
2023-03-22T10:50:16.908Z,100
2023-03-22T10:55:16.959Z,100
2023-03-22T11:00:17.110Z,100
2023-03-22T11:05:16.969Z,100
2023-03-22T11:10:17.066Z,100
2023-03-22T11:15:17.332Z,100
2023-03-22T11:20:17.385Z,100
2023-03-22T11:25:17.064Z,100
2023-03-22T11:30:17.299Z,100
2023-03-22T11:35:17.007Z,100
2023-03-22T11:40:17.081Z,100
2023-03-22T11:45:17.246Z,100
2023-03-22T11:50:17.315Z,100
2023-03-22T11:55:17.258Z,100
2023-03-22T12:00:17.226Z,100
2023-03-22T12:05:17.204Z,100
2023-03-22T12:10:17.186Z,100
2023-03-22T12:15:17.284Z,100
2023-03-22T12:20:17.205Z,100
2023-03-22T12:25:17.740Z,100
2023-03-22T12:30:17.576Z,100
2023-03-22T12:35:18.240Z,100
2023-03-22T12:40:17.112Z,100
2023-03-22T12:45:17.302Z,100
2023-03-22T12:50:17.289Z,100
2023-03-22T12:55:17.255Z,100
2023-03-22T13:00:17.549Z,100
2023-03-22T13:05:17.605Z,100
2023-03-22T13:10:17.388Z,100
2023-03-22T13:15:17.844Z,100
2023-03-22T13:20:17.355Z,100
2023-03-22T13:25:17.482Z,100
2023-03-22T13:30:17.385Z,100
2023-03-22T13:35:17.686Z,100
2023-03-22T13:40:17.536Z,100
2023-03-22T13:45:17.471Z,100
2023-03-22T13:50:20.555Z,100
2023-03-22T13:55:18.734Z,100
2023-03-22T14:00:19.820Z,100
2023-03-22T14:05:17.515Z,100
2023-03-22T14:10:17.682Z,100
2023-03-22T14:15:17.853Z,100
2023-03-22T14:20:17.517Z,100
2023-03-22T14:55:17.690Z,100
2023-03-22T15:00:17.626Z,100
2023-03-22T15:05:17.638Z,100
2023-03-22T15:10:17.628Z,100
2023-03-22T15:15:17.783Z,100
2023-03-22T15:20:17.841Z,100
2023-03-22T15:25:17.873Z,100
2023-03-22T15:30:17.617Z,100
2023-03-22T15:35:17.708Z,100
2023-03-22T15:40:17.790Z,100
2023-03-22T15:45:18.010Z,100
2023-03-22T15:50:17.736Z,100
2023-03-22T15:55:17.874Z,100
2023-03-22T16:00:17.989Z,100
2023-03-22T16:05:17.816Z,100
2023-03-22T16:10:17.888Z,100
2023-03-22T16:15:17.822Z,100
2023-03-22T16:20:17.693Z,100
2023-03-22T16:25:17.850Z,100
2023-03-22T16:30:18.309Z,100
2023-03-22T16:35:17.933Z,100
2023-03-22T16:40:18.011Z,100
2023-03-22T16:45:18.106Z,100
2023-03-22T16:50:17.804Z,100
2023-03-22T16:55:17.894Z,100
2023-03-22T17:00:18.163Z,100
2023-03-22T17:05:18.094Z,100
2023-03-22T17:10:17.955Z,100
2023-03-22T17:15:18.065Z,100
2023-03-22T17:20:17.961Z,100
2023-03-22T17:25:18.080Z,100
2023-03-22T17:30:18.015Z,100
2023-03-22T17:35:18.071Z,100
2023-03-22T17:40:32.576Z,100
2023-03-22T17:45:18.146Z,100
2023-03-22T17:50:17.990Z,100
2023-03-22T17:55:23.727Z,100
2023-03-22T18:00:18.748Z,100
2023-03-22T18:05:24.645Z,100
2023-03-22T18:10:18.039Z,100
2023-03-22T18:15:18.595Z,100
2023-03-22T18:20:29.492Z,100
2023-03-22T18:25:18.138Z,100
2023-03-22T18:30:18.051Z,100
2023-03-22T18:35:18.103Z,100
2023-03-22T18:40:58.548Z,100
2023-03-22T18:45:18.657Z,100
2023-03-22T18:50:18.380Z,100
2023-03-22T18:55:29.643Z,100
2023-03-22T19:00:18.278Z,100
2023-03-22T19:05:18.312Z,100
2023-03-22T19:10:18.255Z,100
2023-03-22T19:15:44.906Z,100
2023-03-22T19:20:16.482Z,100
2023-03-22T19:25:16.353Z,100
2023-03-22T19:30:16.757Z,100
2023-03-22T19:35:16.504Z,100
2023-03-22T19:41:27.703Z,100
2023-03-22T19:45:16.625Z,100
2023-03-22T19:50:16.461Z,100
2023-03-22T19:55:16.336Z,100
2023-03-22T20:00:44.302Z,100
2023-03-22T20:05:17.968Z,100
2023-03-22T20:10:16.342Z,100
2023-03-22T20:15:16.517Z,100
2023-03-22T20:20:16.415Z,100
2023-03-22T20:25:16.459Z,100
2023-03-22T20:30:16.475Z,100
2023-03-22T20:35:16.623Z,100
2023-03-22T20:40:16.665Z,100
2023-03-22T20:45:16.701Z,100
2023-03-22T20:50:16.474Z,100
2023-03-22T20:55:16.765Z,100
2023-03-22T21:00:16.499Z,100
2023-03-22T21:05:16.622Z,100
2023-03-22T21:10:16.552Z,100
2023-03-22T21:15:16.562Z,100
2023-03-22T21:20:27.097Z,100
2023-03-22T21:25:16.623Z,100
2023-03-22T21:30:16.851Z,100
2023-03-22T21:35:16.518Z,100
2023-03-22T21:40:16.597Z,100
2023-03-22T21:45:16.859Z,100
2023-03-22T21:50:16.781Z,100
2023-03-22T21:55:16.682Z,100
2023-03-22T22:00:16.974Z,100
2023-03-22T22:05:16.687Z,100
2023-03-22T22:10:16.637Z,100
2023-03-22T22:15:16.998Z,100
2023-03-22T22:20:16.809Z,100
2023-03-22T22:25:16.911Z,100
2023-03-22T22:30:16.853Z,100
2023-03-22T22:35:17.038Z,100
2023-03-22T22:40:16.918Z,100
2023-03-22T22:45:16.936Z,100
2023-03-22T22:50:16.892Z,100
2023-03-22T22:55:17.335Z,100
2023-03-22T23:00:17.193Z,100
2023-03-22T23:05:17.015Z,100
2023-03-22T23:10:17.006Z,100
2023-03-22T23:15:27.088Z,100
2023-03-22T23:20:16.797Z,100
2023-03-22T23:25:16.875Z,100
2023-03-22T23:30:17.151Z,100
2023-03-22T23:35:16.967Z,100
2023-03-22T23:40:16.915Z,100
2023-03-22T23:45:17.122Z,100
2023-03-22T23:50:16.876Z,100
2023-03-22T23:55:16.997Z,100
